Time;durP1;ratioP1;P1;durP2;ratioP2;P2;SDS_P1;SDS_P2;PMS_P1;PMS_P2;Temp;Humidity;BMP_temperature;BMP_pressure;BME280_temperature;BME280_humidity;BME280_pressure;Samples;Min_cycle;Max_cycle;Signal;HPM_P1;HPM_P2
2022/06/17 00:01:03;;;;;;;7.53;6.88;;;;;;;19.30;69.43;95324.72;4950425;28;20237;-66
2022/06/17 00:03:32;;;;;;;8.18;7.57;;;;;;;19.43;68.36;95327.31;4951115;28;20209;-66
2022/06/17 00:06:03;;;;;;;11.35;10.10;;;;;;;19.08;69.91;95316.66;4948568;28;20244;-66
2022/06/17 00:08:34;;;;;;;17.08;11.68;;;;;;;19.16;69.64;95325.56;4949533;28;20827;-67
2022/06/17 00:11:01;;;;;;;10.48;9.52;;;;;;;19.22;69.88;95326.94;4949808;28;20205;-66
2022/06/17 00:13:29;;;;;;;10.77;9.98;;;;;;;19.32;69.74;95326.25;4949945;28;20673;-67
2022/06/17 00:15:56;;;;;;;8.77;8.05;;;;;;;19.16;69.28;95328.16;4949098;28;20213;-66
2022/06/17 00:18:23;;;;;;;13.73;11.80;;;;;;;19.07;70.40;95330.47;4950817;28;20213;-66
2022/06/17 00:20:51;;;;;;;15.45;13.10;;;;;;;18.97;71.87;95330.22;4946641;28;20246;-66
2022/06/17 00:23:20;;;;;;;13.07;11.98;;;;;;;18.95;72.63;95332.06;4950275;28;20271;-67
2022/06/17 00:25:48;;;;;;;13.93;12.52;;;;;;;18.86;73.51;95330.06;4949044;28;20206;-67
2022/06/17 00:28:17;;;;;;;13.57;12.30;;;;;;;18.75;74.21;95324.75;4950548;28;20292;-66
2022/06/17 00:30:46;;;;;;;12.68;11.45;;;;;;;18.80;74.32;95323.56;4950277;28;20268;-67
2022/06/17 00:33:15;;;;;;;15.80;13.73;;;;;;;18.52;75.78;95329.53;4950408;28;20249;-67
2022/06/17 00:35:45;;;;;;;15.68;13.80;;;;;;;18.50;75.68;95322.81;4949024;28;20748;-67
2022/06/17 00:38:15;;;;;;;17.60;15.75;;;;;;;18.71;75.51;95328.44;4947156;28;20209;-66
2022/06/17 00:40:43;;;;;;;16.15;14.27;;;;;;;19.06;74.06;95328.81;4948241;28;20206;-65
2022/06/17 00:43:21;;;;;;;13.50;11.70;;;;;;;19.26;72.93;95330.97;4947667;28;20218;-66
2022/06/17 00:45:53;;;;;;;15.02;12.52;;;;;;;19.40;72.73;95320.59;4948438;28;20624;-67
2022/06/17 00:48:23;;;;;;;14.88;11.88;;;;;;;19.34;72.82;95318.41;4949778;28;20214;-66
2022/06/17 00:50:54;;;;;;;12.57;11.45;;;;;;;19.31;73.02;95319.44;4948270;28;20260;-66
2022/06/17 00:53:23;;;;;;;14.70;13.27;;;;;;;19.47;72.43;95319.31;4949257;28;20248;-66
2022/06/17 00:55:54;;;;;;;13.77;10.05;;;;;;;19.36;72.28;95316.56;4948184;28;20641;-67
2022/06/17 00:58:25;;;;;;;9.18;8.35;;;;;;;19.37;71.08;95313.06;4948888;28;20206;-65
2022/06/17 01:00:56;;;;;;;12.18;9.25;;;;;;;19.42;71.15;95321.34;4947125;28;20213;-66
2022/06/17 01:03:27;;;;;;;12.35;11.32;;;;;;;19.11;72.89;95317.31;4948039;28;20337;-66
2022/06/17 01:05:56;;;;;;;14.02;12.30;;;;;;;18.56;75.31;95319.88;4946643;28;20319;-65
2022/06/17 01:11:14;;;;;;;15.75;13.85;;;;;;;17.96;78.08;95320.03;4953877;28;20560;-66
2022/06/17 01:13:43;;;;;;;14.88;13.50;;;;;;;18.33;76.88;95319.50;4952939;28;20653;-66
2022/06/17 01:16:11;;;;;;;13.63;12.25;;;;;;;18.72;75.86;95312.06;4954096;28;20232;-67
2022/06/17 01:18:43;;;;;;;16.73;12.82;;;;;;;19.01;74.43;95309.34;4954030;28;20210;-66
2022/06/17 01:21:18;;;;;;;12.93;11.63;;;;;;;19.26;73.15;95305.22;4953525;28;20234;-65
2022/06/17 01:23:48;;;;;;;16.88;12.05;;;;;;;19.29;73.00;95307.59;4953062;28;20571;-68
2022/06/17 01:26:15;;;;;;;12.98;11.88;;;;;;;18.96;74.17;95297.66;4951944;28;20202;-67
2022/06/17 01:28:42;;;;;;;14.45;13.07;;;;;;;19.08;73.76;95296.88;4951828;28;20243;-66
2022/06/17 01:31:09;;;;;;;13.00;11.63;;;;;;;19.07;73.49;95302.13;4952419;28;20209;-65
2022/06/17 01:33:39;;;;;;;14.93;12.18;;;;;;;19.03;73.93;95294.63;4951245;28;20721;-66
2022/06/17 01:36:10;;;;;;;14.13;12.70;;;;;;;19.13;73.40;95294.84;4950859;28;20217;-66
2022/06/17 01:38:39;;;;;;;15.52;13.57;;;;;;;19.14;73.49;95285.38;4953380;28;20229;-66
2022/06/17 01:41:08;;;;;;;17.13;15.27;;;;;;;19.25;72.61;95286.34;4952363;28;20205;-66
2022/06/17 01:43:41;;;;;;;17.35;15.00;;;;;;;19.38;72.18;95286.38;4952056;28;20201;-67
2022/06/17 01:46:12;;;;;;;19.35;16.02;;;;;;;19.42;72.20;95282.69;4950767;28;20596;-67
2022/06/17 01:48:43;;;;;;;18.15;14.45;;;;;;;19.08;73.09;95286.56;4952993;28;20221;-67
2022/06/17 01:51:12;;;;;;;16.85;15.13;;;;;;;19.11;73.30;95290.72;4951005;28;20213;-66
2022/06/17 01:53:43;;;;;;;15.88;13.38;;;;;;;19.16;73.08;95288.69;4950712;28;20229;-67
2022/06/17 01:56:15;;;;;;;13.98;12.65;;;;;;;19.28;72.53;95282.75;4952578;28;20220;-67
2022/06/17 01:58:47;;;;;;;14.77;13.27;;;;;;;19.38;71.85;95286.38;4952249;28;20210;-65
2022/06/17 02:01:16;;;;;;;22.60;16.23;;;;;;;19.36;71.61;95281.31;4952139;28;20633;-65
2022/06/17 02:03:47;;;;;;;19.63;16.55;;;;;;;19.37;71.77;95287.31;4951764;28;20202;-67
2022/06/17 02:06:19;;;;;;;18.05;15.73;;;;;;;19.27;72.11;95296.56;4950567;28;20276;-65
2022/06/17 02:08:46;;;;;;;19.60;14.70;;;;;;;19.19;72.58;95298.78;4951525;28;20210;-67
2022/06/17 02:11:16;;;;;;;14.93;13.40;;;;;;;19.40;71.89;95301.75;4952109;28;20638;-66
2022/06/17 02:13:43;;;;;;;21.40;15.93;;;;;;;19.48;70.95;95300.34;4952503;28;20508;-67
2022/06/17 02:16:11;;;;;;;15.85;14.20;;;;;;;19.50;71.13;95303.66;4951526;28;20232;-66
2022/06/17 02:18:40;;;;;;;15.85;12.68;;;;;;;19.38;71.40;95305.25;4951465;28;20218;-66
2022/06/17 02:21:13;;;;;;;14.82;12.57;;;;;;;19.23;71.94;95310.56;4952474;28;20193;-66
2022/06/17 02:23:40;;;;;;;14.95;13.52;;;;;;;19.18;71.86;95312.59;4952469;28;20276;-70
2022/06/17 02:26:09;;;;;;;14.10;12.75;;;;;;;19.08;72.33;95306.34;4950549;28;20214;-66
2022/06/17 02:28:39;;;;;;;14.88;13.32;;;;;;;19.05;72.54;95304.84;4951896;28;20687;-69
2022/06/17 02:31:08;;;;;;;15.27;13.55;;;;;;;18.53;73.96;95299.47;4951732;28;20198;-66
2022/06/17 02:33:37;;;;;;;22.15;14.75;;;;;;;17.92;76.99;95300.53;4951645;28;20738;-67
2022/06/17 02:36:10;;;;;;;22.40;15.32;;;;;;;17.24;79.96;95295.84;4950387;28;20309;-66
2022/06/17 02:38:38;;;;;;;18.90;15.85;;;;;;;16.75;82.34;95300.28;4951595;28;20280;-66
2022/06/17 02:41:07;;;;;;;18.35;16.35;;;;;;;16.51;84.09;95309.25;4952474;28;20218;-65
2022/06/17 02:43:39;;;;;;;18.83;16.88;;;;;;;16.64;83.94;95311.09;4952496;28;20633;-67
2022/06/17 02:46:14;;;;;;;18.17;16.15;;;;;;;17.27;81.26;95316.22;4951866;28;20675;-66
2022/06/17 02:48:46;;;;;;;16.50;14.75;;;;;;;17.75;78.85;95305.84;4952440;28;20264;-67
2022/06/17 02:51:14;;;;;;;15.95;14.48;;;;;;;18.00;77.63;95311.22;4952095;28;20206;-67
2022/06/17 02:53:43;;;;;;;15.10;13.63;;;;;;;17.59;78.79;95311.00;4951782;28;20651;-66
2022/06/17 02:56:16;;;;;;;14.80;13.38;;;;;;;17.51;79.68;95311.44;4951234;28;20240;-68
2022/06/17 02:59:03;;;;;;;15.90;14.38;;;;;;;17.72;78.65;95314.56;4952377;28;20213;-67
2022/06/17 03:01:33;;;;;;;15.73;14.23;;;;;;;17.89;77.91;95309.25;4951657;28;20209;-67
2022/06/17 03:04:01;;;;;;;17.33;14.02;;;;;;;17.57;78.98;95305.94;4950894;28;20221;-67
2022/06/17 03:06:33;;;;;;;15.65;13.57;;;;;;;17.61;79.07;95307.41;4949111;28;20205;-67
2022/06/17 03:09:03;;;;;;;15.77;14.13;;;;;;;18.00;77.61;95306.06;4950812;28;20666;-67
2022/06/17 03:11:30;;;;;;;18.10;13.00;;;;;;;18.15;76.56;95305.16;4948958;28;20899;-66
2022/06/17 03:14:04;;;;;;;14.90;13.60;;;;;;;18.12;76.71;95296.78;4950577;28;20288;-66
2022/06/17 03:16:33;;;;;;;15.05;13.55;;;;;;;18.18;76.37;95299.00;4949023;28;20209;-67
2022/06/17 03:19:00;;;;;;;18.38;13.85;;;;;;;18.25;76.15;95300.31;4950909;28;20202;-68
2022/06/17 03:21:27;;;;;;;14.35;12.98;;;;;;;18.09;76.61;95310.66;4949756;28;20316;-66
2022/06/17 03:24:02;;;;;;;14.18;12.73;;;;;;;18.23;76.10;95313.25;4949252;28;20198;-66
2022/06/17 03:26:34;;;;;;;16.63;13.90;;;;;;;18.45;75.51;95306.81;4949936;28;20205;-67
2022/06/17 03:29:05;;;;;;;15.65;13.15;;;;;;;18.88;74.83;95310.19;4950588;28;20213;-66
2022/06/17 03:31:35;;;;;;;15.73;12.10;;;;;;;20.17;70.60;95314.69;4949932;28;20935;-67
2022/06/17 03:34:06;;;;;;;13.23;11.85;;;;;;;21.80;64.33;95316.09;4951608;28;20228;-67
2022/06/17 03:36:37;;;;;;;14.20;11.90;;;;;;;23.29;59.31;95309.00;4950678;28;20493;-67
2022/06/17 03:39:12;;;;;;;12.98;11.40;;;;;;;24.46;54.98;95306.34;4934378;28;20214;-67
2022/06/17 03:41:46;;;;;;;10.13;9.23;;;;;;;25.41;51.58;95311.03;4951979;28;20213;-66
2022/06/17 03:44:17;;;;;;;14.73;10.75;;;;;;;25.26;51.66;95321.94;4951303;28;20202;-67
2022/06/17 03:46:49;;;;;;;33.75;24.55;;;;;;;26.35;49.81;95311.28;4951531;28;20205;-68
2022/06/17 03:49:19;;;;;;;36.17;22.92;;;;;;;27.34;47.32;95313.19;4952164;28;20193;-68
2022/06/17 03:51:50;;;;;;;16.13;13.43;;;;;;;27.89;45.42;95313.06;4951318;28;20193;-68
2022/06/17 03:54:17;;;;;;;49.17;32.47;;;;;;;28.08;44.45;95325.13;4950816;28;20242;-68
2022/06/17 03:56:47;;;;;;;15.15;13.55;;;;;;;28.46;43.46;95328.38;4951010;28;20256;-67
2022/06/17 03:59:20;;;;;;;15.90;11.52;;;;;;;29.24;42.20;95324.66;4950969;28;20209;-67
2022/06/17 04:01:51;;;;;;;11.98;9.10;;;;;;;29.98;40.49;95328.25;4950638;28;20655;-69
2022/06/17 04:04:20;;;;;;;10.93;9.68;;;;;;;30.55;39.52;95325.59;4951462;28;20249;-68
2022/06/17 04:06:50;;;;;;;12.00;9.60;;;;;;;30.64;38.35;95319.38;4949692;28;20217;-68
2022/06/17 04:09:19;;;;;;;9.77;8.68;;;;;;;30.92;37.91;95322.44;4950738;28;20296;-68
2022/06/17 04:11:48;;;;;;;10.32;8.68;;;;;;;30.98;37.94;95322.53;4950985;28;20686;-68
2022/06/17 04:14:21;;;;;;;9.30;8.40;;;;;;;30.11;39.80;95344.34;4951060;28;20225;-68
2022/06/17 04:16:54;;;;;;;11.02;9.40;;;;;;;29.38;40.91;95336.31;4950155;28;20209;-68
2022/06/17 04:19:24;;;;;;;9.93;8.90;;;;;;;28.44;42.82;95331.97;4950539;28;20210;-67
2022/06/17 04:21:52;;;;;;;9.30;8.45;;;;;;;27.60;44.58;95341.19;4950031;28;20202;-69
2022/06/17 04:24:23;;;;;;;10.45;9.02;;;;;;;26.94;46.09;95333.56;4950726;28;20217;-66
2022/06/17 04:26:54;;;;;;;16.33;12.65;;;;;;;26.54;46.84;95333.84;4950199;28;20228;-67
2022/06/17 04:29:35;;;;;;;22.40;18.33;;;;;;;25.92;48.31;95340.38;4950691;28;20619;-67
2022/06/17 04:32:06;;;;;;;13.80;11.30;;;;;;;25.88;48.75;95344.22;4950935;28;20332;-68
2022/06/17 04:34:33;;;;;;;11.25;9.52;;;;;;;26.01;48.52;95331.72;4950588;28;20280;-66
2022/06/17 04:37:04;;;;;;;8.38;7.57;;;;;;;26.65;46.98;95338.91;4949369;28;20214;-67
2022/06/17 04:39:34;;;;;;;8.38;7.63;;;;;;;27.14;45.95;95334.31;4949900;28;20324;-66
2022/06/17 04:42:05;;;;;;;7.60;6.78;;;;;;;28.51;43.22;95332.16;4950183;28;20209;-67
2022/06/17 04:44:34;;;;;;;7.93;7.20;;;;;;;29.58;41.09;95334.28;4950632;28;20206;-68
2022/06/17 04:47:05;;;;;;;9.52;6.82;;;;;;;30.09;39.68;95338.44;4949817;28;20241;-66
2022/06/17 04:49:34;;;;;;;9.18;7.10;;;;;;;30.56;38.82;95337.75;4949925;28;20217;-66
2022/06/17 04:52:04;;;;;;;7.80;7.03;;;;;;;30.20;38.85;95327.59;4949895;28;20210;-66
2022/06/17 04:54:33;;;;;;;19.38;10.45;;;;;;;30.07;38.75;95330.75;4950041;28;20244;-66
2022/06/17 04:57:03;;;;;;;21.70;16.08;;;;;;;30.14;38.94;95338.78;4950155;28;20201;-67
2022/06/17 04:59:36;;;;;;;13.18;9.68;;;;;;;29.76;39.37;95333.16;4950072;28;20229;-68
2022/06/17 05:02:07;;;;;;;12.95;8.32;;;;;;;30.56;38.45;95322.84;4949846;28;20209;-67
2022/06/17 05:04:34;;;;;;;12.20;7.55;;;;;;;30.76;37.72;95333.78;4949390;28;20241;-67
2022/06/17 05:07:00;;;;;;;8.93;7.72;;;;;;;31.42;36.91;95329.94;4949271;28;20673;-66
2022/06/17 05:09:32;;;;;;;48.08;29.00;;;;;;;29.65;39.71;95337.91;4949431;28;20679;-66
2022/06/17 05:12:05;;;;;;;9.02;8.48;;;;;;;28.71;42.05;95322.28;4950346;28;20272;-67
2022/06/17 05:14:41;;;;;;;16.15;10.35;;;;;;;28.59;42.59;95334.00;4950195;28;20234;-67
2022/06/17 05:17:08;;;;;;;15.70;13.05;;;;;;;28.40;42.83;95330.63;4949664;28;21710;-66
2022/06/17 05:19:35;;;;;;;10.38;9.27;;;;;;;27.70;43.83;95332.34;4950110;28;21151;-66
2022/06/17 05:22:03;;;;;;;12.18;9.48;;;;;;;28.14;43.13;95324.53;4949370;28;20608;-66
2022/06/17 05:24:30;;;;;;;10.90;9.60;;;;;;;28.94;42.04;95328.66;4949249;28;20206;-66
2022/06/17 05:26:58;;;;;;;14.70;8.73;;;;;;;29.63;40.77;95332.81;4950011;28;20209;-66
2022/06/17 05:29:25;;;;;;;13.05;8.70;;;;;;;31.63;37.31;95324.06;4950565;28;20561;-67
2022/06/17 05:31:54;;;;;;;8.98;8.07;;;;;;;33.88;33.08;95328.16;4949660;28;20280;-67
2022/06/17 05:34:20;;;;;;;9.73;8.57;;;;;;;35.01;31.48;95312.19;4950466;28;20230;-68
2022/06/17 05:36:47;;;;;;;13.80;8.77;;;;;;;35.68;29.99;95314.06;4949683;28;20268;-68
2022/06/17 05:39:14;;;;;;;13.70;8.60;;;;;;;35.45;29.62;95309.94;4949298;28;20277;-67
2022/06/17 05:41:41;;;;;;;7.72;7.00;;;;;;;35.03;30.18;95304.88;4949641;28;21567;-66
2022/06/17 05:44:08;;;;;;;9.15;6.43;;;;;;;33.08;33.53;95303.53;4950624;28;20304;-67
2022/06/17 05:46:35;;;;;;;8.13;6.32;;;;;;;33.86;32.11;95302.00;4947662;28;20218;-67
2022/06/17 05:49:03;;;;;;;11.43;5.95;;;;;;;34.11;31.89;95305.03;4950751;28;20210;-66
2022/06/17 05:51:31;;;;;;;13.13;6.55;;;;;;;34.69;31.02;95297.75;4949362;28;20911;-65
2022/06/17 05:53:58;;;;;;;9.68;6.65;;;;;;;34.70;31.43;95304.66;4950122;28;20617;-67
2022/06/17 05:56:24;;;;;;;10.52;8.35;;;;;;;34.45;32.05;95297.19;4953582;28;20326;-67
2022/06/17 05:58:51;;;;;;;9.90;6.00;;;;;;;34.89;30.84;95303.19;4953054;28;20639;-65
2022/06/17 06:01:18;;;;;;;17.63;11.05;;;;;;;35.21;30.63;95299.88;4953335;28;20264;-66
2022/06/17 06:03:45;;;;;;;14.10;9.18;;;;;;;34.65;30.93;95301.78;4953084;28;20286;-66
2022/06/17 06:06:14;;;;;;;9.02;6.60;;;;;;;34.03;31.82;95302.53;4953212;28;21177;-68
2022/06/17 06:08:40;;;;;;;9.45;5.50;;;;;;;32.37;33.92;95304.94;4951785;28;20218;-66
2022/06/17 06:11:08;;;;;;;11.07;5.78;;;;;;;31.76;35.12;95300.66;4953247;28;20209;-66
2022/06/17 06:13:35;;;;;;;10.35;6.35;;;;;;;31.35;36.72;95303.53;4953071;28;20209;-67
2022/06/17 06:16:03;;;;;;;8.02;5.53;;;;;;;31.67;36.08;95297.28;4953432;28;20221;-67
2022/06/17 06:18:32;;;;;;;14.15;5.82;;;;;;;32.03;35.76;95296.69;4952533;28;20712;-66
2022/06/17 06:21:00;;;;;;;9.55;6.78;;;;;;;32.05;35.67;95297.31;4951692;28;20707;-66
2022/06/17 06:23:28;;;;;;;11.02;8.55;;;;;;;32.19;35.87;95296.50;4950520;28;20288;-65
2022/06/17 06:25:54;;;;;;;8.75;5.80;;;;;;;32.07;35.50;95288.25;4951915;28;20261;-66
2022/06/17 06:28:24;;;;;;;19.77;8.95;;;;;;;32.15;35.06;95295.25;4951756;28;20206;-64
2022/06/17 06:30:52;;;;;;;13.88;6.22;;;;;;;31.16;36.99;95287.41;4952197;28;20225;-66
2022/06/17 06:33:19;;;;;;;5.43;4.35;;;;;;;28.95;41.30;95293.69;4951968;28;20232;-66
2022/06/17 06:35:46;;;;;;;4.72;4.43;;;;;;;28.44;41.64;95295.38;4952248;28;20241;-66
2022/06/17 06:38:13;;;;;;;6.05;5.22;;;;;;;27.97;43.01;95291.41;4951697;28;20272;-67
2022/06/17 06:40:41;;;;;;;6.40;4.43;;;;;;;28.01;42.75;95297.97;4952177;28;20217;-65
2022/06/17 06:43:13;;;;;;;14.15;6.18;;;;;;;28.38;41.89;95293.34;4952023;28;20644;-66
2022/06/17 06:45:40;;;;;;;11.30;5.03;;;;;;;28.63;41.70;95285.66;4952446;28;20216;-66
2022/06/17 06:48:09;;;;;;;7.18;4.20;;;;;;;28.30;41.84;95293.31;4952386;28;20285;-66
2022/06/17 06:50:37;;;;;;;5.85;4.30;;;;;;;28.63;41.84;95293.50;4952671;28;20317;-66
2022/06/17 06:53:04;;;;;;;21.98;11.73;;;;;;;28.85;41.77;95289.53;4951910;28;20209;-68
2022/06/17 06:55:34;;;;;;;14.80;7.75;;;;;;;28.55;42.43;95288.22;4951448;28;20237;-67
2022/06/17 06:58:04;;;;;;;17.42;7.60;;;;;;;28.84;41.30;95291.31;4952390;28;20228;-66
2022/06/17 07:00:35;;;;;;;7.60;6.60;;;;;;;28.80;41.09;95292.59;4952200;28;21141;-67
2022/06/17 07:03:02;;;;;;;6.32;4.13;;;;;;;28.56;41.48;95282.81;4952061;28;20213;-66
2022/06/17 07:05:30;;;;;;;7.75;4.75;;;;;;;28.72;42.13;95287.31;4950987;28;20248;-68
2022/06/17 07:07:57;;;;;;;5.22;4.30;;;;;;;28.69;42.56;95283.22;4951594;28;20209;-68
2022/06/17 07:10:26;;;;;;;7.05;4.45;;;;;;;28.57;42.85;95287.09;4951975;28;20309;-68
2022/06/17 07:12:54;;;;;;;7.63;4.90;;;;;;;28.93;41.71;95284.34;4952067;28;20217;-67
2022/06/17 07:15:23;;;;;;;5.57;3.75;;;;;;;29.02;41.38;95273.72;4951365;28;20292;-66
2022/06/17 07:17:58;;;;;;;5.10;4.55;;;;;;;29.34;40.17;95280.03;4952023;28;20205;-66
2022/06/17 07:20:27;;;;;;;5.65;3.90;;;;;;;28.84;41.03;95280.03;4952019;28;20263;-66
2022/06/17 07:22:54;;;;;;;4.13;3.63;;;;;;;28.62;41.05;95273.53;4951068;28;22014;-68
2022/06/17 07:25:21;;;;;;;4.00;3.60;;;;;;;28.54;42.10;95273.50;4951149;28;20205;-66
2022/06/17 07:27:48;;;;;;;12.02;4.20;;;;;;;28.27;43.51;95272.69;4951205;28;20268;-68
2022/06/17 07:30:17;;;;;;;4.55;3.53;;;;;;;28.55;42.43;95280.38;4952028;28;20635;-68
2022/06/17 07:32:46;;;;;;;7.18;4.05;;;;;;;28.66;42.98;95274.88;4951579;28;20288;-67
2022/06/17 07:35:14;;;;;;;9.02;4.22;;;;;;;28.46;42.98;95270.88;4951083;28;20726;-67
2022/06/17 07:40:25;;;;;;;19.52;11.75;;;;;;;28.20;43.40;95276.91;4951161;28;20380;-68
2022/06/17 07:42:52;;;;;;;12.32;9.43;;;;;;;28.16;43.25;95265.09;4951990;28;20210;-67
2022/06/17 07:45:20;;;;;;;39.97;25.13;;;;;;;28.21;43.26;95262.84;4950834;28;20683;-67
2022/06/17 07:47:49;;;;;;;15.02;10.77;;;;;;;28.24;43.48;95262.53;4951165;28;20582;-68
2022/06/17 07:50:19;;;;;;;6.05;5.53;;;;;;;28.06;43.68;95254.75;4951642;28;20198;-68
2022/06/17 07:52:46;;;;;;;7.45;6.68;;;;;;;28.08;44.18;95265.03;4951406;28;20198;-69
2022/06/17 07:55:13;;;;;;;12.35;5.63;;;;;;;27.89;45.26;95260.00;4950014;28;21772;-67
2022/06/17 07:57:40;;;;;;;17.38;10.40;;;;;;;28.28;44.88;95253.44;4950469;28;20281;-66
2022/06/17 08:00:09;;;;;;;19.48;12.15;;;;;;;28.30;44.63;95256.72;4951669;28;20209;-68
2022/06/17 08:02:36;;;;;;;8.18;7.50;;;;;;;28.42;43.58;95255.47;4951262;28;20209;-65
2022/06/17 08:05:05;;;;;;;11.07;8.27;;;;;;;28.52;43.81;95249.28;4950970;28;21060;-68
2022/06/17 08:07:32;;;;;;;15.25;10.32;;;;;;;28.60;43.91;95249.34;4950153;28;20214;-66
2022/06/17 08:09:59;;;;;;;18.30;9.35;;;;;;;28.37;43.13;95244.66;4950641;28;20213;-65
2022/06/17 08:12:25;;;;;;;20.63;10.55;;;;;;;28.41;43.25;95250.41;4950855;28;20220;-67
2022/06/17 08:14:54;;;;;;;10.55;6.70;;;;;;;27.76;46.01;95247.34;4951162;28;20268;-68
2022/06/17 08:17:21;;;;;;;6.82;4.95;;;;;;;27.38;46.73;95251.06;4950211;28;20217;-66
2022/06/17 08:19:51;;;;;;;9.27;5.40;;;;;;;27.69;45.64;95248.94;4951266;28;20272;-68
2022/06/17 08:22:19;;;;;;;10.75;5.82;;;;;;;27.88;46.39;95246.13;4950989;28;20237;-67
2022/06/17 08:24:46;;;;;;;6.88;6.22;;;;;;;27.90;46.10;95245.97;4949984;28;20221;-66
2022/06/17 08:27:13;;;;;;;6.07;5.57;;;;;;;27.65;46.61;95230.13;4949962;28;20209;-66
2022/06/17 08:29:40;;;;;;;6.35;5.50;;;;;;;27.50;47.13;95231.59;4950702;28;20753;-66
2022/06/17 08:34:51;;;;;;;8.77;5.20;;;;;;;27.80;47.13;95229.56;4950485;28;20239;-66
2022/06/17 08:37:19;;;;;;;5.85;5.10;;;;;;;27.73;46.58;95229.34;4949946;28;20214;-66
2022/06/17 08:39:49;;;;;;;14.18;11.20;;;;;;;27.36;47.16;95229.53;4950070;28;20291;-66
2022/06/17 08:42:30;;;;;;;8.00;5.13;;;;;;;27.45;46.78;95223.41;4950974;28;20206;-66
2022/06/17 08:45:08;;;;;;;5.65;5.18;;;;;;;27.57;47.36;95222.19;4950399;28;20214;-68
2022/06/17 08:47:53;;;;;;;7.88;6.97;;;;;;;28.04;45.74;95214.06;4948696;28;20209;-67
2022/06/17 08:50:46;;;;;;;9.57;8.65;;;;;;;28.47;45.74;95220.19;4949472;28;20198;-67
2022/06/17 08:53:44;;;;;;;12.90;6.53;;;;;;;28.37;45.90;95221.13;4949606;28;20209;-65
2022/06/17 08:56:16;;;;;;;10.57;6.90;;;;;;;28.55;44.68;95217.63;4950081;28;20970;-67
2022/06/17 08:59:13;;;;;;;7.60;6.88;;;;;;;28.25;45.62;95217.16;4945657;28;20210;-65
2022/06/17 09:01:53;;;;;;;6.90;6.30;;;;;;;28.14;45.77;95219.19;4949097;28;20209;-65
2022/06/17 09:04:37;;;;;;;8.77;6.00;;;;;;;27.96;46.56;95227.09;4949963;28;20248;-67
2022/06/17 09:07:18;;;;;;;11.55;5.85;;;;;;;28.05;46.31;95226.97;4949958;28;20197;-67
2022/06/17 09:10:14;;;;;;;6.82;6.15;;;;;;;28.20;45.51;95216.81;4948545;28;20309;-68
2022/06/17 09:12:52;;;;;;;6.57;5.60;;;;;;;28.48;45.39;95224.44;4947698;28;20201;-70
2022/06/17 09:15:25;;;;;;;17.52;10.18;;;;;;;28.70;44.86;95218.66;4949655;28;20665;-71
2022/06/17 09:17:57;;;;;;;20.13;13.23;;;;;;;28.58;44.79;95217.31;4948134;28;20261;-71
2022/06/17 09:20:31;;;;;;;10.30;7.63;;;;;;;28.76;44.86;95221.44;4949837;28;20210;-70
2022/06/17 09:23:02;;;;;;;21.52;15.73;;;;;;;28.83;45.33;95213.00;4948188;28;20800;-71
2022/06/17 09:25:38;;;;;;;94.95;66.65;;;;;;;28.81;44.93;95215.78;4946427;28;20210;-71
2022/06/17 09:28:09;;;;;;;13.23;11.85;;;;;;;28.83;44.98;95216.44;4948107;28;20197;-71
2022/06/17 09:30:41;;;;;;;29.77;21.50;;;;;;;28.85;44.82;95208.44;4952141;28;20218;-70
2022/06/17 09:33:12;;;;;;;43.72;32.05;;;;;;;28.75;45.31;95211.16;4953200;28;20698;-70
2022/06/17 09:35:45;;;;;;;26.83;18.17;;;;;;;28.79;44.88;95210.66;4952704;28;20292;-70
2022/06/17 09:38:16;;;;;;;37.05;26.77;;;;;;;28.77;45.70;95203.97;4952179;28;20232;-71
2022/06/17 09:40:51;;;;;;;13.15;10.90;;;;;;;28.58;45.56;95201.63;4952135;28;20260;-70
2022/06/17 09:43:23;;;;;;;25.58;20.77;;;;;;;28.66;45.65;95204.28;4952675;28;20213;-71
2022/06/17 09:45:53;;;;;;;22.15;18.88;;;;;;;28.64;46.22;95201.00;4953670;28;20754;-71
2022/06/17 09:48:26;;;;;;;22.13;17.20;;;;;;;28.73;44.96;95200.84;4952459;28;20210;-71
2022/06/17 09:50:57;;;;;;;28.67;20.80;;;;;;;28.99;44.35;95197.34;4982382;23;20961;-69
2022/06/17 09:53:32;;;;;;;29.42;22.05;;;;;;;29.19;42.95;95196.09;4975066;28;20656;-70
2022/06/17 09:56:06;;;;;;;22.00;17.58;;;;;;;29.15;41.25;95205.25;4972800;28;20713;-69
2022/06/17 09:58:38;;;;;;;17.95;15.85;;;;;;;29.25;41.04;95197.22;4974705;28;20214;-70
2022/06/17 10:01:05;;;;;;;11.70;10.55;;;;;;;29.11;40.63;95199.50;4972543;28;20279;-70
2022/06/17 10:03:33;;;;;;;19.98;17.02;;;;;;;28.91;41.23;95207.81;4973539;28;20213;-69
2022/06/17 10:06:15;;;;;;;9.02;7.68;;;;;;;28.88;41.10;95193.25;4955911;28;20586;-69
2022/06/17 10:08:52;;;;;;;10.20;9.27;;;;;;;28.68;38.97;95202.31;4955963;28;20213;-70
2022/06/17 10:11:27;;;;;;;10.65;9.25;;;;;;;28.51;37.85;95200.59;4949899;28;20216;-69
2022/06/17 10:14:08;;;;;;;7.40;6.90;;;;;;;28.52;37.53;95197.81;4953365;28;20724;-70
2022/06/17 10:19:41;;;;;;;5.50;5.00;;;;;;;28.47;36.11;95199.28;4953204;28;20745;-69
2022/06/17 10:22:20;;;;;;;5.93;5.43;;;;;;;28.51;36.83;95198.81;4954205;28;20602;-70
2022/06/17 10:25:00;;;;;;;6.10;5.22;;;;;;;28.44;37.95;95195.19;4953128;28;20237;-69
2022/06/17 10:27:51;;;;;;;17.38;7.20;;;;;;;28.55;36.37;95191.47;4954131;28;20221;-72
2022/06/17 10:30:23;;;;;;;6.65;6.05;;;;;;;28.81;35.87;95187.00;4952157;28;20292;-69
2022/06/17 10:32:52;;;;;;;5.35;4.95;;;;;;;28.67;36.48;95184.97;4954207;28;20698;-69
2022/06/17 10:35:27;;;;;;;6.57;5.38;;;;;;;28.64;37.29;95182.69;4953239;28;21504;-70
2022/06/17 10:37:58;;;;;;;7.85;7.18;;;;;;;28.85;37.78;95180.47;4954009;28;20208;-69
2022/06/17 10:40:28;;;;;;;16.92;15.02;;;;;;;28.80;36.23;95180.09;4952340;28;20209;-69
2022/06/17 10:43:01;;;;;;;20.38;18.33;;;;;;;28.76;36.17;95184.00;4951391;28;20229;-69
2022/06/17 10:45:27;;;;;;;35.05;29.02;;;;;;;28.87;36.50;95189.00;4953182;28;20209;-69
2022/06/17 10:48:01;;;;;;;21.17;15.73;;;;;;;29.07;36.35;95182.47;4953083;28;20209;-71
2022/06/17 10:50:31;;;;;;;10.02;6.65;;;;;;;28.66;37.33;95199.03;4954511;28;20393;-71
2022/06/17 10:53:04;;;;;;;7.65;7.05;;;;;;;28.96;36.88;95184.56;4954426;28;20892;-70
2022/06/17 10:55:35;;;;;;;9.25;7.60;;;;;;;29.26;37.28;95191.00;4953651;28;20834;-69
2022/06/17 10:58:10;;;;;;;6.47;5.90;;;;;;;29.40;37.29;95185.16;4953138;28;21195;-69
2022/06/17 11:00:51;;;;;;;7.15;5.68;;;;;;;29.53;36.66;95182.88;4955478;28;20219;-69
2022/06/17 11:03:23;;;;;;;8.20;7.40;;;;;;;29.09;39.61;95190.19;4953021;28;20667;-70
2022/06/17 11:05:57;;;;;;;7.97;7.22;;;;;;;28.30;42.84;95191.38;4954395;28;21941;-69
2022/06/17 11:08:27;;;;;;;7.75;7.05;;;;;;;27.74;43.97;95195.25;4955004;28;20268;-69
2022/06/17 11:12:02;;;;;;;8.55;7.80;;;;;;;27.42;46.48;95205.44;4952536;28;20681;-68
2022/06/17 11:13:48;;;;;;;11.30;7.38;;;;;;;27.67;45.55;95203.88;4951145;28;20225;-69
2022/06/17 11:16:20;;;;;;;13.77;7.43;;;;;;;27.39;45.57;95195.28;4953912;28;20229;-68
2022/06/17 11:18:54;;;;;;;11.52;6.97;;;;;;;27.21;46.09;95199.72;4951349;28;20209;-68
2022/06/17 11:21:26;;;;;;;9.45;6.72;;;;;;;26.78;47.22;95194.19;4953587;28;21094;-69
2022/06/17 11:23:58;;;;;;;9.98;8.07;;;;;;;26.90;46.86;95192.22;4955165;28;20706;-69
2022/06/17 11:26:30;;;;;;;11.23;6.45;;;;;;;26.79;47.04;95192.41;4953986;28;20193;-69
2022/06/17 11:29:01;;;;;;;6.95;6.35;;;;;;;26.72;46.47;95183.56;4954106;28;20709;-69
2022/06/17 11:31:39;;;;;;;6.95;6.35;;;;;;;26.46;46.45;95180.00;4953425;28;21456;-69
2022/06/17 11:34:16;;;;;;;6.45;6.05;;;;;;;26.58;46.64;95181.41;4952987;28;20224;-69
2022/06/17 11:37:00;;;;;;;11.65;7.03;;;;;;;26.69;45.56;95178.63;4954020;28;20233;-69
2022/06/17 11:39:34;;;;;;;8.52;7.72;;;;;;;26.65;45.72;95177.28;4949869;28;20235;-69
2022/06/17 11:42:04;;;;;;;8.88;8.00;;;;;;;26.61;45.28;95174.13;4952390;28;20220;-70
2022/06/17 11:44:32;;;;;;;17.45;8.38;;;;;;;26.51;46.20;95164.72;4951509;28;20206;-70
2022/06/17 11:47:02;;;;;;;6.63;6.05;;;;;;;26.49;46.36;95161.44;4952812;28;20209;-69
2022/06/17 11:49:34;;;;;;;7.78;7.22;;;;;;;26.67;46.46;95162.31;4952237;28;20921;-69
2022/06/17 11:52:05;;;;;;;12.68;11.40;;;;;;;26.73;44.27;95159.91;4952048;28;20295;-69